Map

Track Data

SID SEASON NUMBER BASIN SUBBASIN NAME ISO_TIME NATURE LAT LON WMO_WIND WMO_PRES WMO_AGENCY TRACK_TYPE DIST2LAND LANDFALL IFLAG USA_AGENCY USA_ATCF_ID USA_LAT USA_LON USA_RECORD USA_STATUS USA_WIND USA_PRES USA_SSHS USA_R34_NE USA_R34_SE USA_R34_SW USA_R34_NW USA_R50_NE USA_R50_SE USA_R50_SW USA_R50_NW USA_R64_NE USA_R64_SE USA_R64_SW USA_R64_NW USA_POCI USA_ROCI USA_RMW USA_EYE TOKYO_LAT TOKYO_LON TOKYO_GRADE TOKYO_WIND TOKYO_PRES TOKYO_R50_DIR TOKYO_R50_LONG TOKYO_R50_SHORT TOKYO_R30_DIR TOKYO_R30_LONG TOKYO_R30_SHORT TOKYO_LAND CMA_LAT CMA_LON CMA_CAT CMA_WIND CMA_PRES HKO_LAT HKO_LON HKO_CAT HKO_WIND HKO_PRES NEWDELHI_LAT NEWDELHI_LON NEWDELHI_GRADE NEWDELHI_WIND NEWDELHI_PRES NEWDELHI_CI NEWDELHI_DP NEWDELHI_POCI REUNION_LAT REUNION_LON REUNION_TYPE REUNION_WIND REUNION_PRES REUNION_TNUM REUNION_CI REUNION_RMW REUNION_R34_NE REUNION_R34_SE REUNION_R34_SW REUNION_R34_NW REUNION_R50_NE REUNION_R50_SE REUNION_R50_SW REUNION_R50_NW REUNION_R64_NE REUNION_R64_SE REUNION_R64_SW REUNION_R64_NW BOM_LAT BOM_LON BOM_TYPE BOM_WIND BOM_PRES BOM_TNUM BOM_CI BOM_RMW BOM_R34_NE BOM_R34_SE BOM_R34_SW BOM_R34_NW BOM_R50_NE BOM_R50_SE BOM_R50_SW BOM_R50_NW BOM_R64_NE BOM_R64_SE BOM_R64_SW BOM_R64_NW BOM_ROCI BOM_POCI BOM_EYE BOM_POS_METHOD BOM_PRES_METHOD NADI_LAT NADI_LON NADI_CAT NADI_WIND NADI_PRES WELLINGTON_LAT WELLINGTON_LON WELLINGTON_WIND WELLINGTON_PRES DS824_LAT DS824_LON DS824_STAGE DS824_WIND DS824_PRES TD9636_LAT TD9636_LON TD9636_STAGE TD9636_WIND TD9636_PRES TD9635_LAT TD9635_LON TD9635_WIND TD9635_PRES TD9635_ROCI NEUMANN_LAT NEUMANN_LON NEUMANN_CLASS NEUMANN_WIND NEUMANN_PRES MLC_LAT MLC_LON MLC_CLASS MLC_WIND MLC_PRES USA_GUST BOM_GUST BOM_GUST_PER REUNION_GUST REUNION_GUST_PER USA_SEAHGT USA_SEARAD_NE USA_SEARAD_SE USA_SEARAD_SW USA_SEARAD_NW STORM_SPEED STORM_DIR
2010293N13165 2010 72 WP MM NOT_NAMED 2010-10-19 12:00:00 NR 12.9000 165.300 main 2335 2325 O_____________ jtwc_wp WP172010 12.9000 165.300 DB 15 1010 -3 13 302
2010293N13165 2010 72 WP MM NOT_NAMED 2010-10-19 15:00:00 NR 13.2304 164.755 main 2327 2320 P_____________ WP172010 13.2304 164.755 DB 17 1008 -3 12 306
2010293N13165 2010 72 WP MM NOT_NAMED 2010-10-19 18:00:00 NR 13.6000 164.300 main 2330 2330 O_____________ jtwc_wp WP172010 13.6000 164.300 DB 20 1007 -3 11 317
2010293N13165 2010 72 WP MM NOT_NAMED 2010-10-19 21:00:00 NR 14.0473 163.985 main 2347 2347 P_____________ WP172010 14.0473 163.985 DB 17 1008 -3 12 330
2010293N13165 2010 72 WP MM NOT_NAMED 2010-10-20 00:00:00 NR 14.6000 163.700 main 2384 2384 O_____________ jtwc_wp WP172010 14.6000 163.700 DB 15 1010 -3 14 332
2010293N13165 2010 72 WP MM NOT_NAMED 2010-10-20 03:00:00 NR 15.2775 163.322 main 2427 2427 P_____________ WP172010 15.2775 163.322 DB 15 1010 -3 16 331
2010293N13165 2010 72 WP MM NOT_NAMED 2010-10-20 06:00:00 NR 16.0000 162.900 main 2470 2470 O_____________ jtwc_wp WP172010 16.0000 162.900 DB 15 1010 -3 16 329
2010293N13165 2010 72 WP MM NOT_NAMED 2010-10-20 09:00:00 NR 16.6724 162.465 main 2516 2511 P_____________ WP172010 16.6724 162.465 DB 15 1010 -3 16 326
2010293N13165 2010 72 WP MM NOT_NAMED 2010-10-20 12:00:00 NR 17.3000 162.000 main 2549 2549 O_____________ jtwc_wp WP172010 17.3000 162.000 DB 15 1010 -3 15 323
2010293N13165 2010 72 WP MM NOT_NAMED 2010-10-20 15:00:00 NR 17.8874 161.515 main 2583 2583 P_____________ WP172010 17.8874 161.515 DB 17 1008 -3 15 319
2010293N13165 2010 72 WP MM NOT_NAMED 2010-10-20 18:00:00 NR 18.4000 161.000 main 2609 2609 O_____________ jtwc_wp WP172010 18.4000 161.000 DB 20 1007 -3 14 314
2010293N13165 2010 72 WP MM NOT_NAMED 2010-10-20 21:00:00 NR 18.8298 160.472 main 2627 2624 P_____________ WP172010 18.8298 160.472 DB 20 1006 -3 13 308
2010293N13165 2010 72 WP MM NOT_NAMED 2010-10-21 00:00:00 NR 19.1800 159.940 main 2617 2550 O__O__________ jtwc_wp WP172010 19.2000 159.900 DB 20 1005 -3 1008 150 45 19.1000 160.100 TD 25 1008 13 303
2010293N13165 2010 72 WP MM NOT_NAMED 2010-10-21 03:00:00 NR 19.5534 159.298 main 2542 2467 P__P__________ WP172010 19.5648 159.272 DB 22 1004 -3 1008 150 45 19.5306 159.348 TD 25 1008 15 300
2010293N13165 2010 72 WP MM NOT_NAMED 2010-10-21 06:00:00 TS 19.9000 158.600 main 2467 2393 O_OO__________ jtwc_wp WP172010 19.9000 158.600 TD 25 1004 -1 1009 150 45 19.9000 158.600 0 19 1006 19.9000 158.600 TD 25 1008 15 295
2010293N13165 2010 72 WP MM NOT_NAMED 2010-10-21 09:00:00 TS 20.1751 157.881 main 2393 2328 P_PP__________ WP172010 20.2225 157.885 TD 25 1004 -1 1009 162 45 20.0854 157.898 0 19 1006 20.1724 157.870 TD 25 1007 14 291
2010293N13165 2010 72 WP MM NOT_NAMED 2010-10-21 12:00:00 TS 20.4091 157.200 main 2328 2270 O_OO__________ jtwc_wp WP172010 20.5000 157.200 TD 25 1004 -1 1009 175 45 20.3000 157.200 0 19 1006 20.4000 157.200 TD 25 1006 13 291
2010293N13165 2010 72 WP MM NOT_NAMED 2010-10-21 15:00:00 TS 20.6532 156.581 main 2262 2211 P_PP__________ WP172010 20.7372 156.612 TD 27 1002 -1 1008 167 42 20.5576 156.533 0 24 1005 20.6648 156.598 TD 25 1006 12 293
2010293N13165 2010 72 WP MM NOT_NAMED 2010-10-21 18:00:00 TS 20.8667 156.067 main 2211 2176 O_OO__________ jtwc_wp WP172010 20.9000 156.100 TD 30 1000 -1 1008 160 40 20.8000 156.000 1 29 1004 20.9000 156.100 TD 25 1006 9 291
2010293N13165 2010 72 WP MM NOT_NAMED 2010-10-21 21:00:00 TS 20.9731 155.679 main 2176 2147 P_PP__________ WP172010 20.9274 155.612 TD 30 1000 -1 1007 167 37 20.9420 155.712 1 29 1004 21.0497 155.712 TD 25 1006 7 290
2010293N13165 2010 72 WP MM NOT_NAMED 2010-10-22 00:00:00 TS 21.1000 155.367 main 2147 2102 O_OO__________ jtwc_wp WP172010 21.0000 155.200 TD 30 1000 -1 1007 175 35 21.1000 155.500 1 29 1004 21.2000 155.400 TD 25 1006 7 306
2010293N13165 2010 72 WP MM NOT_NAMED 2010-10-22 03:00:00 TS 21.3948 155.055 main 2102 2056 P_PP__________ WP172010 21.3423 154.885 TD 30 1000 -1 1007 170 35 21.3999 155.180 1 29 1004 21.4424 155.100 TD 25 1006 8 316
2010293N13165 2010 72 WP MM NOT_NAMED 2010-10-22 06:00:00 TS 21.7000 154.733 main 2049 2012 O_OO__________ jtwc_wp WP172010 21.7000 154.600 TD 30 1000 -1 1007 165 35 21.7000 154.800 1 29 1004 21.7000 154.800 TD 25 1006 8 308
2010293N13165 2010 72 WP MM NOT_NAMED 2010-10-22 09:00:00 TS 21.8974 154.365 main 2012 1978 P_PP__________ WP172010 21.8526 154.235 TD 30 1000 -1 1007 165 35 21.8949 154.372 1 29 1004 21.9447 154.488 TD 25 1006 8 293
2010293N13165 2010 72 WP MM NOT_NAMED 2010-10-22 12:00:00 TS 22.0000 153.967 main 1978 1946 O_OO__________ jtwc_wp WP172010 21.9000 153.900 TD 30 1000 -1 1007 165 35 22.0000 153.900 1 29 1004 22.1000 154.100 TD 25 1006 9 277
2010293N13165 2010 72 WP MM NOT_NAMED 2010-10-22 15:00:00 TS 21.9962 153.455 main 1946 1921 P_PP__________ WP172010 21.8999 153.632 TD 30 1000 -1 1007 162 35 22.0154 153.287 1 29 1004 22.0732 153.445 TD 27 1005 8 268
2010293N13165 2010 72 WP MM NOT_NAMED 2010-10-22 18:00:00 TS 21.9667 153.133 main 1921 1921 O_OO__________ jtwc_wp WP172010 21.9000 153.500 TD 30 1000 -1 1007 160 35 22.0000 152.900 1 29 1004 22.0000 153.000 TD 30 1004 2 277
2010293N13165 2010 72 WP MM NOT_NAMED 2010-10-22 21:00:00 TS 22.0159 153.291 main 1933 1930 P_PP__________ WP172010 21.9850 153.547 TD 30 1000 -1 1007 160 32 22.0350 153.087 1 29 1004 22.0276 153.238 TD 27 1005 5 74
2010293N13165 2010 72 WP MM NOT_NAMED 2010-10-23 00:00:00 TS 22.1000 153.633 main 1943 1943 O_OO__________ jtwc_wp WP172010 22.1000 153.700 TD 30 1000 -1 1007 160 30 22.1000 153.500 1 29 1004 22.1000 153.700 TD 25 1006 5 71
2010293N13165 2010 72 WP MM NOT_NAMED 2010-10-23 03:00:00 TS 22.1798 153.818 main 1947 1947 P_PP__________ WP172010 22.1773 153.798 TD 30 1000 -1 1007 155 30 22.1849 153.750 1 29 1004 22.1773 153.908 TD 25 1006 4 61
2010293N13165 2010 72 WP MM NOT_NAMED 2010-10-23 06:00:00 TS 22.3000 154.030 main 1952 1950 O_OO__________ jtwc_wp WP172010 22.3000 154.000 TD 30 1000 -1 1007 150 30 22.3000 154.000 1 29 1004 22.3000 154.100 TD 25 1006 6 57
2010293N13165 2010 72 WP MM NOT_NAMED 2010-10-23 09:00:00 TS 22.5216 154.397 main 1961 1953 P_PP__________ WP172010 22.5805 154.464 TD 27 1002 -1 1007 145 30 22.4427 154.287 1 29 1004 22.4827 154.372 TD 25 1006 9 58
2010293N13165 2010 72 WP MM NOT_NAMED 2010-10-23 12:00:00 TS 22.7500 154.817 main 1963 1963 O_OO__________ jtwc_wp WP172010 22.8000 154.900 TD 25 1004 -1 1007 140 30 22.6000 154.600 1 29 1004 22.7000 154.700 TD 25 1006 6 67
2010293N13165 2010 72 WP MM NOT_NAMED 2010-10-23 15:00:00 TS 22.7598 155.010 main 1977 1977 P_____________ WP172010 22.7598 155.010 TD 22 1005 -1 928 1 TD 2 132
2010293N13165 2010 72 WP MM NOT_NAMED 2010-10-23 18:00:00 NR 22.6000 155.000 main 1993 1993 O_____________ jtwc_wp WP172010 22.6000 155.000 DB 20 1007 -3 850 3 171
2010293N13165 2010 72 WP MM NOT_NAMED 2010-10-23 21:00:00 NR 22.4725 155.050 main 2008 2002 P_____________ WP172010 22.4725 155.050 DB 20 1007 -3 850 3 164
2010293N13165 2010 72 WP MM NOT_NAMED 2010-10-24 00:00:00 NR 22.3000 155.100 main 2025 2025 O_____________ jtwc_wp WP172010 22.3000 155.100 DB 20 1007 -3 850 4 165
2010293N13165 2010 72 WP MM NOT_NAMED 2010-10-24 03:00:00 NR 22.0725 155.173 main 2049 2049 P_____________ WP172010 22.0725 155.173 DB 20 1007 -3 850 5 170
2010293N13165 2010 72 WP MM NOT_NAMED 2010-10-24 06:00:00 NR 21.8000 155.200 main 2074 2074 O_____________ jtwc_wp WP172010 21.8000 155.200 DB 20 1007 -3 850 6 182
2010293N13165 2010 72 WP MM NOT_NAMED 2010-10-24 09:00:00 NR 21.4624 155.152 main 2100 2100 P_____________ WP172010 21.4624 155.152 DB 20 1007 -3 850 6 197
2010293N13165 2010 72 WP MM NOT_NAMED 2010-10-24 12:00:00 NR 21.2000 155.000 main 2112 2101 O_____________ jtwc_wp WP172010 21.2000 155.000 DB 20 1007 -3 850 5 230
2010293N13165 2010 72 WP MM NOT_NAMED 2010-10-24 15:00:00 NR 21.1251 154.722 main 2101 2073 P_____________ WP172010 21.1251 154.722 DB 20 1007 -3 850 6 270
2010293N13165 2010 72 WP MM NOT_NAMED 2010-10-24 18:00:00 NR 21.2000 154.400 main 2073 2037 O_____________ jtwc_wp WP172010 21.2000 154.400 DB 20 1007 -3 850 6 293
2010293N13165 2010 72 WP MM NOT_NAMED 2010-10-24 21:00:00 NR 21.3625 154.120 main 2037 2006 P_____________ WP172010 21.3625 154.120 DB 20 1007 -3 850 6 311
2010293N13165 2010 72 WP MM NOT_NAMED 2010-10-25 00:00:00 NR 21.6000 153.900 main 2006 1982 O_____________ jtwc_wp WP172010 21.6000 153.900 DB 20 1007 -3 850 6 327
2010293N13165 2010 72 WP MM NOT_NAMED 2010-10-25 03:00:00 NR 21.8349 153.785 main 1982 1950 P_____________ WP172010 21.8349 153.785 DB 17 1008 -3 850 5 340
2010293N13165 2010 72 WP MM NOT_NAMED 2010-10-25 06:00:00 NR 22.1000 153.700 main 1950 1917 O_____________ jtwc_wp WP172010 22.1000 153.700 DB 15 1010 -3 850 6 339
2010293N13165 2010 72 WP MM NOT_NAMED 2010-10-25 09:00:00 NR 22.3925 153.557 main 1917 1878 P_____________ WP172010 22.3925 153.557 DB 15 1010 -3 850 7 335
2010293N13165 2010 72 WP MM NOT_NAMED 2010-10-25 12:00:00 NR 22.7000 153.400 main 1878 1846 O_____________ jtwc_wp WP172010 22.7000 153.400 DB 15 1010 -3 850 7 335
2010293N13165 2010 72 WP MM NOT_NAMED 2010-10-25 15:00:00 NR 22.9850 153.250 main 1839 1807 P_____________ WP172010 22.9850 153.250 DB 15 1010 -3 850 7 335
2010293N13165 2010 72 WP MM NOT_NAMED 2010-10-25 18:00:00 NR 23.3000 153.100 main 1807 1775 O_____________ jtwc_wp WP172010 23.3000 153.100 DB 15 1010 -3 850 7 337
2010293N13165 2010 72 WP MM NOT_NAMED 2010-10-25 21:00:00 NR 23.6625 152.942 main 1759 1719 P_____________ WP172010 23.6625 152.942 DB 15 1010 -3 850 9 341
2010293N13165 2010 72 WP MM NOT_NAMED 2010-10-26 00:00:00 NR 24.1000 152.800 main 1719 1670 O_____________ jtwc_wp WP172010 24.1000 152.800 DB 15 1010 -3 850 10 346
2010293N13165 2010 72 WP MM NOT_NAMED 2010-10-26 03:00:00 NR 24.6200 152.685 main 1670 1614 P_____________ WP172010 24.6200 152.685 DB 15 1010 -3 850 11 351
2010293N13165 2010 72 WP MM NOT_NAMED 2010-10-26 06:00:00 NR 25.2000 152.600 main 1614 1559 O_____________ jtwc_wp WP172010 25.2000 152.600 DB 15 1010 -3 850 12 353
2010293N13165 2010 72 WP MM NOT_NAMED 2010-10-26 09:00:00 NR 25.8150 152.528 main 1559 1512 P_____________ WP172010 25.8150 152.528 DB 15 1010 -3 850 12 356
2010293N13165 2010 72 WP MM NOT_NAMED 2010-10-26 12:00:00 NR 26.4000 152.500 main 1512 1472 O_____________ jtwc_wp WP172010 26.4000 152.500 DB 15 1010 -3 850 11 359
2010293N13165 2010 72 WP MM NOT_NAMED 2010-10-26 15:00:00 NR 26.8800 152.520 main 1472 1448 P_____________ WP172010 26.8800 152.520 DB 15 1010 -3 850 9 5
2010293N13165 2010 72 WP MM NOT_NAMED 2010-10-26 18:00:00 NR 27.3000 152.600 main 1448 1425 O_____________ jtwc_wp WP172010 27.3000 152.600 DB 15 1010 -3 850 8 13
2010293N13165 2010 72 WP MM NOT_NAMED 2010-10-26 21:00:00 NR 27.7026 152.735 main 1425 1411 P_____________ WP172010 27.7026 152.735 DB 15 1010 -3 850 8 18
2010293N13165 2010 72 WP MM NOT_NAMED 2010-10-27 00:00:00 NR 28.1000 152.900 main 1411 O_____________ jtwc_wp WP172010 28.1000 152.900 DB 15 1010 -3 850 9 20

Digital Typhoon Data and Search

About IBTrACS Database

This database is a web-friendly format of International Best Track Archive for Climate Stewardship (IBTrACS), a global best track data archive curated by NOAA dating back to 1842.

Updated: 2021-10-25